Details From LFBL - Limoges Bellegarde
To LFBU - Angouleme Brie Champniers
Flight Number -
Tags generated
Created
Modified
Stats Distance 41 nm / 76 km
Max Altitude 2,500 ft / 762 m
Waypoints 3
Social Downloads 0
Likes 0
Share VATSIM

Download

Looking for another format? Having issues loading an existing format? Contact us
Advertisement - Login to hide

Notes

Basic altitude profile: - Ascent Rate: 2500ft/min - Ascent Speed: 250kts - Cruise Altitude: 35000ft - Cruise Speed: 420kts - Descent Rate: 1500ft/min - Descent Speed: 250kts Options: - Use NATs: yes - Use PACOTS: yes - Use low airways: yes - Use high airways: no

Route

LFBL LMG LFBU

ID Type Via Altitude Latitude Longitude Leg Dist Tot Dist Heading (true) Name
O LFBL APT - 0 ft / 0 m 45.86190˚ 1.18137˚ - 0 nm - Limoges Bellegarde
LMG VOR - 2,500 ft / 762 m 45.81592˚ 1.02558˚ 7 nm 7 nm 247° / 247° LIMOGES VOR-DME
O LFBU APT - 0 ft / 0 m 45.72951˚ 0.21867˚ 34 nm 41 nm 262° / 261° Angouleme Brie Champniers

Altitude Profile

Advertisement - Login to hide

LFBL

Details ICAO LFBL (LIG)
Name Limoges Bellegarde
Region France
Timezone Europe/Paris (UTC+1.0)
Stats Elevation 1,300 ft / 396 m (AMSL)
Location 45.861896° 1.181368°
Runways 1
Magnetic Variation 0.423° E

METAR

LFBL 161300Z AUTO 33004KT 310V010 9999 OVC008 03/02 Q1019 BECMG BKN016

Decode

TAF

TAF LFBL 161100Z 1612/1712 30007KT 9999 BKN007 BECMG 1612/1614 BKN016 BECMG 1620/1623 3000 BR OVC003 PROB40 TEMPO 1620/1705 0400 FG VV/// BECMG 1705/1707 6000 NSW OVC005 TEMPO 1705/1710 1200 -SN OVC002

Decode

Departure Runways

ID Width Length Bearing (true) Bearing (mag) Surface Threshold Offset Overrun Length
03 148 ft / 45 m 8,202 ft / 2,500 m 33.16° 32.74° Asphalt 0 ft / 0 m 0 ft / 0 m
21 148 ft / 45 m 8,202 ft / 2,500 m 213.18° 212.76° Asphalt 196 ft / 60 m 0 ft / 0 m

LFBU

Details ICAO LFBU (ANG)
Name Angouleme Brie Champniers
Region France
Timezone Europe/Paris (UTC+1.0)
Stats Elevation 436 ft / 133 m (AMSL)
Location 45.729515° 0.218672°
Runways 1
Magnetic Variation 0.153° E

METAR

LFBU 161300Z AUTO 34007KT 9999 FEW013 06/02 Q1021 NOSIG

Decode

TAF

TAF LFBU 161100Z 1612/1712 30005KT CAVOK BECMG 1618/1620 4000 BR PROB30 TEMPO 1700/1706 0800 FG VV///

Decode

Destination Runways

ID Width Length Bearing (true) Bearing (mag) Surface Threshold Offset Overrun Length
10 148 ft / 45 m 5,923 ft / 1,805 m 96.94° 96.79° Asphalt 0 ft / 0 m 1,805 ft / 550 m
28 148 ft / 45 m 5,923 ft / 1,805 m 276.96° 276.81° Asphalt 0 ft / 0 m 1,375 ft / 419 m

Approach Navaids

Runway Type Ident Frequency Range Bearing (true) Bearing (mag) Slope Elevation
28 Localiser AM 109.35 MHz 18 nm / 33 km 276.94° 276.79° - 427 ft / 130 m (AMSL)
28 Glidescope AM 109.35 MHz 10 nm / 19 km 276.95° 276.80° 3.00° 420 ft / 128 m (AMSL)
28 DME AM 109.35 MHz 18 nm / 33 km - - - 420 ft / 128 m (AMSL)